Tiempo atmosférico en la estación meteorológica de Roncesvalles, Navarra (940 m.)



Fecha
DESCASC
Temp. máxima en grados centígrados (hora)
DESCASC
Temp. mínima en grados centígrados (hora)
DESCASC
Temp. media en grados centígrados
DESCASC
Racha de viento máxima en m/sg (hora)
DESCASC
Velocidad máxima media en intervalos de 10 minutos(hora)
DESCASC
Precipitaciones diarias en mm
DESCASC
Precipitaciones de 00:00 a 06:00 en mm
DESCASC
Precipitaciones de 06:00 a 12:00 en mm
DESCASC
Precipitaciones de 12:00 a 18:00 en mm
DESCASC
Precipitaciones de 18:00 a 24:00 en mm
DESCASC
16-04-2019 15.2 (17:30) 5.7 (07:50) 10.4 7.22 (15:20) 3.61 (15:00) 4.4 4.4 0 0 0
15-04-2019 18.6 (17:40) 6.4 (23:40) 12.5 12.22 (21:40) 7.22 (13:00) 28 0 0 0 28
14-04-2019 14.8 (15:10) 3.6 (00:00) 9.2 6.94 (14:50) 3.33 (14:50) 0 0 0 0 0
13-04-2019 15.2 (17:20) -0.1 (00:00) 7.5 7.78 (06:10) 4.17 (13:40) 0 0 0 0 0
12-04-2019 9.4 (15:50) 0.8 (00:00) 5.1 9.72 (14:20) 4.72 (20:10) 0 0 0 0 0
11-04-2019 5.3 (16:30) 2.2 (00:00) 3.8 7.78 (19:10) 2.78 (19:10) 18.2 5.6 8.4 4 0.2
10-04-2019 7.6 (16:50) 3.3 (00:00) 5.4 7.5 (21:00) 2.78 (21:00) 5.2 0.2 0.8 4.2 0
09-04-2019 10.8 (15:50) 0.9 (00:00) 5.9 8.61 (12:20) 4.72 (12:00) 4 0 0.2 1 2.8
08-04-2019 6.9 (14:40) 1.6 (00:00) 4.3 6.39 (21:10) 3.33 (16:50) 3 0.6 0.6 1.8 0
07-04-2019 -- (--) -- (--) -- -- (--) -- (--) -- -- -- 0.4 0
06-04-2019 -- (--) -- (--) -- -- (--) -- (--) -- 2 2.4 3.2 --
05-04-2019 6.6 (16:10) 0 (00:00) 3.3 14.17 (06:10) 7.22 (06:20) 5.4 0 0.4 0 5
04-04-2019 7.5 (17:10) -2.3 (-00:0) 2.6 9.44 (23:10) 5 (19:10) 1.2 1 0.2 0 0
03-04-2019 5 (00:00) -1.3 (-00:0) 1.9 7.78 (13:30) 3.33 (13:30) 11.2 4 2.4 3.4 1.4
02-04-2019 11.6 (15:50) 5 (00:00) 8.3 7.5 (17:40) 3.33 (17:40) 1.2 1.2 0 0 0
01-04-2019 10.2 (18:50) 4.1 (00:00) 7.1 5.56 (16:00) 2.78 (15:50) 7 2.4 1.4 0 3.2
31-03-2019 14.1 (15:30) 1.1 (00:00) 7.6 6.11 (14:50) 3.61 (13:30) 0 0 0 0 0
30-03-2019 14.7 (17:10) 4.1 (00:00) 9.4 8.06 (14:10) 4.72 (13:00) 0 0 0 0 0
29-03-2019 14.3 (14:30) 1.3 (00:00) 7.8 11.94 (11:50) 6.67 (11:50) 0 0 0 0 0
28-03-2019 9.7 (14:30) 0.8 (00:00) 5.2 11.11 (16:10) 5.28 (15:40) 0 0 0 0 0
27-03-2019 9.3 (14:10) -0.2 (00:00) 4.6 16.39 (16:40) 7.5 (16:30) 0 0 0 0 0
26-03-2019 8.3 (17:10) -0.7 (-00:0) 3.8 12.22 (18:50) 5.56 (14:20) 0 0 0 0 0
25-03-2019 7.6 (15:30) 2.7 (00:00) 5.1 14.44 (15:00) 5.28 (22:40) 0 0 0 0 0
24-03-2019 14.5 (10:30) 4.8 (00:00) 9.7 10.28 (14:30) 4.72 (13:50) 0 0 0 0 0
23-03-2019 16.4 (11:10) 3.2 (00:00) 9.8 7.78 (15:00) 4.72 (15:40) 0 0 0 0 0
22-03-2019 16 (16:20) 0 (00:00) 8 7.22 (13:20) 3.61 (11:40) 0 0 0 0 0
21-03-2019 9.3 (15:30) 0.9 (00:00) 5.1 8.06 (03:30) 4.17 (12:00) 0 0 0 0 0
20-03-2019 6.2 (16:30) 0.8 (00:00) 3.5 11.39 (15:20) 5.56 (15:50) 0 0 0 0 0
19-03-2019 2.7 (15:40) 0.2 (00:00) 1.5 10.28 (13:30) 3.89 (23:30) 17.6 11 2.2 0 4.4

Gráficas

Temp. máximas Temp. mínimas Temp. medias Precipitaciones Rachas de viento máximas Velocidades máximas media en intervalos de 10 minutos

Datos horarios

Fecha y hora oficial Temperatura (ºC) Velocidad del viento (km/h) Dirección del viento Racha (km/h) Dirección de racha Precipitación (mm) Presión (hPa) Tendencia (hPa) Humedad (%)
2019-04-17 23:00:00 12.6 4 Oeste 9 Oeste 0 -- -- 66
2019-04-17 22:00:00 13.4 2 Oeste 11 Sudoeste 0 -- -- 64
2019-04-17 21:00:00 14.7 3 Sudoeste 26 Sur 0 -- -- 56
2019-04-17 20:00:00 16.6 11 Sudeste 27 Sudeste 0 -- -- 52
2019-04-17 19:00:00 17 10 Sur 33 Sur 0 -- -- 47
2019-04-17 18:00:00 17.8 18 Sur 39 Sur 0 -- -- 46
2019-04-17 17:00:00 17.4 20 Sur 41 Sur 0 -- -- 49
2019-04-17 16:00:00 16.8 20 Sur 46 Sudoeste 0 -- -- 52
2019-04-17 15:00:00 16.8 23 Sur 44 Sur 0 -- -- 54
2019-04-17 14:00:00 15.5 17 Sur 33 Sur 0 -- -- 61
2019-04-17 13:00:00 13.6 19 Sur 43 Sur 0 -- -- 62
2019-04-17 12:00:00 13.1 18 Sur 37 Sur 0 -- -- 61
2019-04-17 11:00:00 12 10 Sur 33 Sur 0 -- -- 63
2019-04-17 10:00:00 11.3 21 Sur 36 Sur 0 -- -- 69
2019-04-17 09:00:00 10.7 14 Sur 40 Sur 0 -- -- 70
2019-04-17 08:00:00 9.5 19 Sur 40 Sur 0 -- -- 74
2019-04-17 07:00:00 9.3 14 Sur 30 Sur 0 -- -- 76
2019-04-17 06:00:00 9 10 Sur 31 Sudeste 0 -- -- 79
2019-04-17 05:00:00 9.2 8 Sudeste 35 Sudeste 0 -- -- 77
2019-04-17 04:00:00 9 7 Sudeste 25 Este 0 -- -- 79
2019-04-17 03:00:00 9.1 6 Sur 19 Sudeste 0 -- -- 80
2019-04-17 02:00:00 10 8 Este 24 Este 0 -- -- 75
2019-04-17 01:00:00 10.2 9 Este 21 Este 0 -- -- 73
2019-04-17 00:00:00 10.2 6 Sudeste 20 Este 0 -- -- 72
2019-04-16 23:00:00 10.4 6 Sudeste 18 Este 0 -- -- 68
2019-04-16 22:00:00 10.3 3 Nordeste 10 Este 0 -- -- 65
2019-04-16 21:00:00 10.9 0 Calma 5 Nordeste 0 -- -- 61
2019-04-16 20:00:00 11.3 2 Nordeste 17 Sudeste 0 -- -- 72
2019-04-16 19:00:00 13.9 10 Sur 21 Sur 0 -- -- 58
2019-04-16 18:00:00 14.6 12 Sur 22 Oeste 0 -- -- 53
2019-04-16 17:00:00 14.2 8 Noroeste 20 Norte 0 -- -- 69
2019-04-16 16:00:00 13 9 Norte 26 Norte 0 -- -- 71
2019-04-16 15:00:00 12.1 13 Norte 21 Norte 0 -- -- 75
2019-04-16 14:00:00 12.6 8 Norte 18 Norte 0 -- -- 69
2019-04-16 13:00:00 11.7 6 Nordeste 18 Norte 0 -- -- 71
2019-04-16 12:00:00 9.7 9 Norte 21 Norte 0 -- -- 82
2019-04-16 11:00:00 7.8 9 Norte 22 Este 0 -- -- 86
2019-04-16 10:00:00 7 7 Este 16 Este 0 -- -- 92
2019-04-16 09:00:00 6.1 3 Oeste 13 Este 0 -- -- 96
2019-04-16 08:00:00 5.7 6 Norte 18 Norte 0 -- -- 96
2019-04-16 07:00:00 5.8 3 Noroeste 13 Norte 0 -- -- 96
2019-04-16 06:00:00 6 4 Norte 15 Norte 0 -- -- 94
2019-04-16 05:00:00 6.1 5 Norte 16 Norte 0.2 -- -- 95
2019-04-16 04:00:00 6.3 4 Norte 15 Norte 0 -- -- 96
2019-04-16 03:00:00 6.5 4 Norte 10 Norte 0 -- -- 95
2019-04-16 02:00:00 6.5 5 Nordeste 15 Norte 1.2 -- -- 95
2019-04-16 01:00:00 6.5 2 Sur 12 Este 3 -- -- 99
2019-04-16 00:00:00 6.4 8 Nordeste 24 Norte 8.8 -- -- 99
2019-04-15 23:00:00 7 11 Noroeste 40 Norte 2 -- -- 94
2019-04-15 22:00:00 7.3 17 Nordeste 44 Norte 3.4 -- -- 96
2019-04-15 21:00:00 9.3 13 Norte 27 Norte 9.2 -- -- 96
2019-04-15 20:00:00 10.3 5 Oeste 27 Norte 3.8 -- -- 96
2019-04-15 19:00:00 12.4 15 Oeste 42 Oeste 0.8 -- -- 84
2019-04-15 18:00:00 17.2 21 Sur 37 Sur 0 -- -- 60
2019-04-15 17:00:00 17.2 18 Sur 31 Sur 0 -- -- 59
2019-04-15 16:00:00 17.7 21 Sur 37 Sur 0 -- -- 61
2019-04-15 15:00:00 17.9 16 Sur 36 Sudoeste 0 -- -- 62
2019-04-15 14:00:00 17.3 22 Sur 42 Sur 0 -- -- 62
2019-04-15 13:00:00 16.1 26 Sur 41 Sudeste 0 -- -- 64
2019-04-15 12:00:00 15.8 20 Sur 39 Sudoeste 0 -- -- 65
2019-04-15 11:00:00 14.9 23 Sur 35 Sur 0 -- -- 64
2019-04-15 10:00:00 13.1 10 Sur 15 Sur 0 -- -- 75
2019-04-15 09:00:00 11.4 5 Norte 11 Sudeste 0 -- -- 78
2019-04-15 08:00:00 8.3 4 Nordeste 5 Nordeste 0 -- -- 91
2019-04-15 07:00:00 8.5 0 Calma 4 Norte 0 -- -- 91
2019-04-15 06:00:00 8.3 2 Nordeste 4 Nordeste 0 -- -- 93
2019-04-15 05:00:00 7.4 2 Nordeste 8 Nordeste 0 -- -- 98
2019-04-15 04:00:00 7.4 0 Calma 4 Nordeste 0 -- -- 100
2019-04-15 03:00:00 7 0 Calma 5 Norte 0 -- -- 100
2019-04-15 02:00:00 7.3 0 Calma 4 Norte 0 -- -- 100
2019-04-15 01:00:00 8 3 Norte 5 Nordeste 0 -- -- 100
2019-04-15 00:00:00 8.2 2 Norte 5 Norte 0 -- -- 100
2019-04-14 23:00:00 7.9 0 Calma 8 Nordeste 0 -- -- 100
2019-04-14 22:00:00 8.3 0 Calma 12 Nordeste 0 -- -- 97
2019-04-14 21:00:00 10.5 4 Nordeste 13 Noroeste 0 -- -- 93
2019-04-14 20:00:00 10.7 6 Norte 13 Nordeste 0 -- -- 93
2019-04-14 19:00:00 10 3 Norte 14 Norte 0 -- -- 96
2019-04-14 18:00:00 9.8 5 Norte 16 Noroeste 0 -- -- 94
2019-04-14 17:00:00 11 3 Norte 21 Norte 0 -- -- 87
2019-04-14 16:00:00 12.3 8 Nordeste 25 Norte 0 -- -- 74
2019-04-14 15:00:00 14.6 8 Norte 25 Nordeste 0 -- -- 70
2019-04-14 14:00:00 13.1 5 Nordeste 23 Norte 0 -- -- 68
2019-04-14 13:00:00 12 6 Noroeste 21 Sudoeste 0 -- -- 66
2019-04-14 12:00:00 11.2 8 Norte 18 Norte 0 -- -- 59
2019-04-14 11:00:00 11.6 4 Sudeste 17 Norte 0 -- -- 51
2019-04-14 10:00:00 9.7 5 Nordeste 14 Norte 0 -- -- 59
2019-04-14 09:00:00 9.9 3 Noroeste 11 Norte 0 -- -- 43
2019-04-14 08:00:00 9.8 5 Norte 11 Norte 0 -- -- 40
2019-04-14 07:00:00 8.6 5 Nordeste 12 Nordeste 0 -- -- 48
2019-04-14 06:00:00 8.5 3 Norte 8 Nordeste 0 -- -- 48
2019-04-14 05:00:00 5.4 0 Calma 2 Oeste 0 -- -- 66
2019-04-14 04:00:00 3.9 0 Calma 2 Norte 0 -- -- 60
2019-04-14 03:00:00 4.6 0 Calma 3 Noroeste 0 -- -- 62
2019-04-14 02:00:00 4.5 0 Calma 2 Norte 0 -- -- 61
2019-04-14 01:00:00 5.3 0 Calma 4 Norte 0 -- -- 60
2019-04-14 00:00:00 6.6 4 Norte 5 Norte 0 -- -- 58
2019-04-13 23:00:00 6.6 0 Calma 7 Norte 0 -- -- 59
2019-04-13 22:00:00 7.7 5 Norte 10 Norte 0 -- -- 54
2019-04-13 21:00:00 7.9 5 Norte 13 Norte 0 -- -- 64
2019-04-13 20:00:00 10.4 6 Norte 21 Noroeste 0 -- -- 54
2019-04-13 19:00:00 12.8 12 Norte 22 Norte 0 -- -- 44
2019-04-13 18:00:00 14.4 8 Norte 17 Noroeste 0 -- -- 36
2019-04-13 17:00:00 15 8 Norte 22 Noroeste 0 -- -- 29
2019-04-13 16:00:00 14.6 10 Noroeste 22 Norte 0 -- -- 23
2019-04-13 15:00:00 14.2 13 Norte 22 Norte 0 -- -- 27
2019-04-13 14:00:00 13.2 11 Norte 27 Norte 0 -- -- 38
2019-04-13 13:00:00 12.9 10 Norte 24 Nordeste 0 -- -- 31
2019-04-13 12:00:00 12 10 Norte 22 Noroeste 0 -- -- 20
2019-04-13 11:00:00 11.5 7 Norte 21 Norte 0 -- -- 19
2019-04-13 10:00:00 10.3 8 Norte 18 Noroeste 0 -- -- 20
2019-04-13 09:00:00 5.6 0 Calma 6 Este 0 -- -- 37
2019-04-13 08:00:00 1.2 0 Calma 5 Nordeste 0 -- -- 56
2019-04-13 07:00:00 -0.1 2 Norte 28 Norte 0 -- -- 84
2019-04-13 06:00:00 3.5 13 Norte 26 Nordeste 0 -- -- 82
2019-04-13 05:00:00 0.6 0 Calma 5 Norte 0 -- -- 89
2019-04-13 04:00:00 0.6 2 Norte 5 Nordeste 0 -- -- 90
2019-04-13 03:00:00 0.7 3 Norte 5 Norte 0 -- -- 98
2019-04-13 02:00:00 0.7 2 Oeste 7 Noroeste 0 -- -- 96
2019-04-13 01:00:00 2 6 Norte 20 Noroeste 0 -- -- 91
2019-04-13 00:00:00 0.8 2 Sudoeste 5 Este 0 -- -- 98
2019-04-12 23:00:00 2.8 4 Oeste 24 Noroeste 0 -- -- 88
2019-04-12 22:00:00 4 9 Noroeste 26 Norte 0 -- -- 83
2019-04-12 21:00:00 4.7 14 Norte 32 Norte 0 -- -- 80
2019-04-12 20:00:00 5.7 15 Noroeste 33 Noroeste 0 -- -- 77
2019-04-12 19:00:00 7.2 11 Norte 28 Noroeste 0 -- -- 72
2019-04-12 18:00:00 7.8 11 Noroeste 32 Norte 0 -- -- 72
2019-04-12 17:00:00 7.8 10 Noroeste 31 Norte 0 -- -- 74
2019-04-12 16:00:00 9 9 Sudeste 23 Noroeste 0 -- -- 76
2019-04-12 15:00:00 8.9 10 Noroeste 35 Este 0 -- -- 74
2019-04-12 14:00:00 8.4 9 Sudeste 26 Este 0 -- -- 72
2019-04-12 13:00:00 6.9 5 Oeste 20 Este 0 -- -- 78
2019-04-12 12:00:00 5.5 8 Este 29 Este 0 -- -- 89
2019-04-12 11:00:00 4.6 5 Sudoeste 15 Sudeste 0 -- -- 94
2019-04-12 10:00:00 4 6 Sur 16 Este 0 -- -- 98
2019-04-12 09:00:00 3.6 5 Oeste 19 Oeste 0 -- -- 99
2019-04-12 08:00:00 3.5 5 Sudoeste 17 Noroeste 0 -- -- 100
2019-04-12 07:00:00 3.6 5 Sudoeste 24 Este 0 -- -- 100
2019-04-12 06:00:00 3.8 6 Sur 17 Oeste 0 -- -- 100
2019-04-12 05:00:00 3.9 4 Sudoeste 21 Este 0 -- -- 100
2019-04-12 04:00:00 4 4 Sur 17 Noroeste 0 -- -- 100
2019-04-12 03:00:00 4.1 4 Sudoeste 14 Sudeste 0 -- -- 100
2019-04-12 02:00:00 4.1 4 Sur 11 Sur 0 -- -- 99
2019-04-12 01:00:00 4.1 6 Sudoeste 13 Oeste 0 -- -- 100
2019-04-12 00:00:00 4 5 Sudoeste 14 Sur 0 -- -- 100
2019-04-11 23:00:00 4 3 Sudoeste 20 Sur 0.2 -- -- 97
2019-04-11 22:00:00 3.9 4 Norte 17 Oeste 0 -- -- 92
2019-04-11 21:00:00 4 4 Sudoeste 24 Nordeste 0 -- -- 93
2019-04-11 20:00:00 4.7 5 Noroeste 28 Norte 0 -- -- 93
2019-04-11 19:00:00 5.3 6 Noroeste 24 Nordeste 0 -- -- 92
2019-04-11 18:00:00 5.2 4 Sur 16 Noroeste 0 -- -- 91
2019-04-11 17:00:00 4.7 7 Sudeste 21 Noroeste 0.4 -- -- 92
2019-04-11 16:00:00 4.7 6 Norte 23 Nordeste 0.6 -- -- 96
2019-04-11 15:00:00 4.7 4 Noroeste 22 Oeste 0.6 -- -- 97
2019-04-11 14:00:00 4.5 3 Nordeste 18 Noroeste 2 -- -- 98
2019-04-11 13:00:00 4.6 6 Nordeste 18 Oeste 0.4 -- -- 97
2019-04-11 12:00:00 4.1 6 Oeste 24 Noroeste 0.4 -- -- 98
2019-04-11 11:00:00 3.7 5 Sudoeste 12 Sudoeste 1.6 -- -- 100
2019-04-11 10:00:00 3.2 5 Sudoeste 16 Este 1.2 -- -- 99
2019-04-11 09:00:00 3 3 Sudoeste 14 Oeste 1.2 -- -- 100
2019-04-11 08:00:00 2.7 3 Sur 13 Sur 0.2 -- -- 100
2019-04-11 07:00:00 2.5 5 Oeste 20 Noroeste 3.8 -- -- 99
2019-04-11 06:00:00 2.7 4 Sudoeste 13 Oeste 1.2 -- -- 99
2019-04-11 05:00:00 3.1 3 Nordeste 15 Noroeste 0.6 -- -- 95
2019-04-11 04:00:00 3.3 4 Noroeste 17 Noroeste 0.2 -- -- 99
2019-04-11 03:00:00 3.1 0 Calma 18 Oeste 0.8 -- -- 99
2019-04-11 02:00:00 3.2 4 Sudoeste 22 Este 2.8 -- -- 99
2019-04-11 01:00:00 4.5 7 Sudeste 24 Este 0 -- -- 96
2019-04-11 00:00:00 4.5 5 Sur 21 Sudeste 0 -- -- 99
2019-04-10 23:00:00 4.5 4 Sur 14 Sudoeste 0 -- -- 96
2019-04-10 22:00:00 4.5 5 Oeste 22 Norte 0 -- -- 92
2019-04-10 21:00:00 4.7 10 Noroeste 27 Norte 0 -- -- 85
2019-04-10 20:00:00 5.3 8 Norte 24 Norte 0 -- -- 91
2019-04-10 19:00:00 6.1 4 Oeste 17 Sur 0 -- -- 90
2019-04-10 18:00:00 6.2 5 Sur 17 Oeste 0.2 -- -- 84
2019-04-10 17:00:00 7 5 Oeste 17 Norte 0.2 -- -- 84
2019-04-10 16:00:00 6.4 8 Noroeste 23 Este 0.8 -- -- 91
2019-04-10 15:00:00 4.4 5 Sudeste 22 Este 3 -- -- 94
2019-04-10 14:00:00 6.1 8 Noroeste 22 Norte 0 -- -- 88
2019-04-10 13:00:00 5 4 Sudoeste 13 Este 0 -- -- 98
2019-04-10 12:00:00 4.2 2 Norte 14 Norte 0 -- -- 99
2019-04-10 11:00:00 3.9 3 Noroeste 12 Oeste 0 -- -- 99
2019-04-10 10:00:00 3.8 3 Noroeste 16 Norte 0.4 -- -- 99
2019-04-10 09:00:00 3.7 3 Oeste 13 Norte 0.4 -- -- 97
2019-04-10 08:00:00 4 3 Oeste 10 Sudeste 0 -- -- 99
2019-04-10 07:00:00 4 3 Sur 10 Oeste 0 -- -- 98
2019-04-10 06:00:00 4.1 3 Noroeste 15 Norte 0 -- -- 96
2019-04-10 05:00:00 4.4 6 Norte 12 Nordeste 0 -- -- 95
2019-04-10 04:00:00 4.2 2 Norte 16 Oeste 0 -- -- 93
2019-04-10 03:00:00 3.4 3 Norte 11 Norte 0 -- -- 95
2019-04-10 02:00:00 4.2 4 Noroeste 13 Norte 0.2 -- -- 91
2019-04-10 01:00:00 4 3 Norte 10 Norte 0 -- -- 99
2019-04-10 00:00:00 4.2 2 Noroeste 11 Norte 0 -- -- 96
2019-04-09 23:00:00 4.4 2 Nordeste 18 Nordeste 0 -- -- 95
2019-04-09 22:00:00 4.6 6 Nordeste 22 Noroeste 0.2 -- -- 94
2019-04-09 21:00:00 4.6 3 Norte 19 Oeste 0.8 -- -- 94
2019-04-09 20:00:00 5.5 8 Noroeste 24 Noroeste 1.8 -- -- 91
2019-04-09 19:00:00 7.3 8 Norte 15 Norte 0 -- -- 80
2019-04-09 18:00:00 9.3 6 Norte 15 Norte 0 -- -- 62
2019-04-09 17:00:00 8.3 6 Norte 13 Oeste 0.4 -- -- 72
2019-04-09 16:00:00 10 8 Este 23 Este 0.6 -- -- 62
2019-04-09 15:00:00 8.4 7 Sudoeste 26 Sudoeste 0 -- -- 72
2019-04-09 14:00:00 9.6 9 Sur 23 Sur 0 -- -- 71
2019-04-09 13:00:00 9.2 10 Sudoeste 31 Sur 0 -- -- 75
2019-04-09 12:00:00 7.7 17 Sur 30 Sur 0 -- -- 74
2019-04-09 11:00:00 7.2 13 Sudoeste 25 Sudoeste 0.2 -- -- 75
2019-04-09 10:00:00 5.7 5 Sur 9 Sur 0 -- -- 83
2019-04-09 09:00:00 3.8 0 Calma 5 Este 0 -- -- 100
2019-04-09 08:00:00 1.2 3 Nordeste 5 Oeste 0 -- -- 100
2019-04-09 07:00:00 1.8 0 Calma 4 Norte 0 -- -- 100
2019-04-09 06:00:00 0.9 0 Calma 3 Norte 0 -- -- 100
2019-04-09 05:00:00 0.9 0 Calma 4 Sudoeste 0 -- -- 100
2019-04-09 04:00:00 1.2 0 Calma 3 Nordeste 0 -- -- 100
2019-04-09 03:00:00 1.4 0 Calma 2 Norte 0 -- -- 100
2019-04-09 02:00:00 1.8 0 Calma 3 Nordeste 0 -- -- 100
2019-04-09 01:00:00 2.2 0 Calma 5 Norte 0 -- -- 100
2019-04-09 00:00:00 2.2 0 Calma 4 Norte 0 -- -- 100
2019-04-08 23:00:00 1.7 0 Calma 9 Noroeste 0 -- -- 100
2019-04-08 22:00:00 3.4 4 Norte 23 Nordeste 0 -- -- 95
2019-04-08 21:00:00 5 11 Norte 21 Norte 0 -- -- 91
2019-04-08 20:00:00 5.5 10 Norte 21 Norte 0 -- -- 96
2019-04-08 19:00:00 6.7 8 Norte 17 Norte 0 -- -- 92
2019-04-08 18:00:00 5.5 10 Norte 21 Noroeste 0 -- -- 96
2019-04-08 17:00:00 6.4 11 Norte 21 Norte 0 -- -- 91
2019-04-08 16:00:00 6.6 4 Oeste 10 Oeste 1.2 -- -- 97
2019-04-08 15:00:00 6.7 0 Calma 8 Sudoeste 0.2 -- -- 96
2019-04-08 14:00:00 6.5 2 Sur 6 Sudoeste 0.2 -- -- 98
2019-04-08 13:00:00 6.1 2 Sudeste 4 Sudeste 0.2 -- -- 97
2019-04-08 12:00:00 5.5 2 Este 10 Sudeste 0 -- -- 94
2019-04-08 11:00:00 5.2 4 Nordeste 12 Este 0.4 -- -- 94
2019-04-08 10:00:00 4.5 5 Nordeste 9 Este 0.2 -- -- 95
2019-04-08 09:00:00 3.9 3 Nordeste 7 Nordeste 0 -- -- 95
2019-04-08 08:00:00 3.5 4 Nordeste 8 Este 0 -- -- 97
2019-04-08 07:00:00 3.2 5 Este 14 Sudeste 0 -- -- 97
2019-04-08 06:00:00 3.5 5 Sudeste 14 Sudoeste 0.6 -- -- 96
2019-04-08 05:00:00 4.2 5 Sudeste 18 Sur 0 -- -- 91
2019-04-08 04:00:00 5 5 Sur 18 Sur 0 -- -- 77
2019-04-08 03:00:00 4.9 6 Sur 14 Sur 0 -- -- 77
2019-04-08 02:00:00 3.7 2 Oeste 16 Sudeste 0 -- -- 83
2019-04-08 01:00:00 4 3 Sudeste 9 Este 0 -- -- 82
2019-04-08 00:00:00 3.6 3 Oeste 6 Sudeste 0 -- -- 85
2019-04-07 23:00:00 3.6 2 Nordeste 6 Este 0 -- -- 88
2019-04-07 22:00:00 3.3 3 Norte 6 Nordeste 0 -- -- 91
2019-04-07 21:00:00 3.6 4 Norte 6 Norte 0 -- -- 92
2019-04-07 20:00:00 5.1 3 Norte 4 Nordeste 0 -- -- 88
2019-04-07 19:00:00 7.2 3 Este 9 Este 0 -- -- 75
2019-04-07 18:00:00 7.4 2 Sur 12 Nordeste 0 -- -- 81
2019-04-07 17:00:00 5.4 4 Nordeste 12 Nordeste 0 -- -- 85
2019-04-07 16:00:00 4.7 3 Noroeste 15 Nordeste 0 -- -- 91
2019-04-07 15:00:00 5.4 4 Nordeste 17 Norte 0 -- -- 88
2019-04-07 14:00:00 4 4 Este 14 Nordeste 0.2 -- -- 93
2019-04-07 13:00:00 3.4 3 Sur 13 Oeste 0.2 -- -- 98
2019-04-07 12:00:00 3.3 4 Sudoeste -- -- -- -- -- 98
2019-04-07 11:00:00 -- -- -- -- -- -- -- -- --
2019-04-07 10:00:00 -- -- -- -- -- -- -- -- --
2019-04-07 09:00:00 -- -- -- -- -- -- -- -- --
2019-04-07 08:00:00 -- -- -- -- -- -- -- -- --
2019-04-07 07:00:00 -- -- -- -- -- -- -- -- --
2019-04-07 06:00:00 -- -- -- -- -- -- -- -- --
2019-04-07 05:00:00 -- -- -- -- -- -- -- -- --
2019-04-07 04:00:00 -- -- -- -- -- -- -- -- --
2019-04-07 03:00:00 -- -- -- -- -- -- -- -- --
2019-04-07 02:00:00 -- -- -- -- -- -- -- -- --
2019-04-07 01:00:00 -- -- -- -- -- -- -- -- --
2019-04-07 00:00:00 -- -- -- -- -- -- -- -- --
2019-04-06 23:00:00 -- -- -- -- -- -- -- -- --
2019-04-06 22:00:00 -- -- -- -- -- -- -- -- --
2019-04-06 21:00:00 3.8 3 Oeste 13 Sudeste 0.2 -- -- 92
2019-04-06 20:00:00 4.3 5 Sur 17 Sur 0 -- -- 88
2019-04-06 19:00:00 5.1 6 Sudeste 14 Este 0 -- -- 87
2019-04-06 18:00:00 5.4 4 Este 9 Sudeste 0 -- -- 84
2019-04-06 17:00:00 1.8 4 Norte 35 Sudoeste 2.6 -- -- 100
2019-04-06 16:00:00 7 6 Sudoeste 31 Sur 0.6 -- -- 75
2019-04-06 15:00:00 5.7 8 Sudoeste 27 Sur 0 -- -- 79
2019-04-06 14:00:00 5.8 12 Sudoeste 30 Sudoeste 0 -- -- 74
2019-04-06 13:00:00 4.2 11 Sudoeste 22 Sudoeste 0 -- -- 87
2019-04-06 12:00:00 2.9 8 Sur 18 Sur 0 -- -- 90
2019-04-06 11:00:00 2.9 6 Sudoeste 15 Sur 0 -- -- 94
2019-04-06 10:00:00 0.9 0 Calma 4 Sur 0 -- -- 100
2019-04-06 09:00:00 0.2 0 Calma 4 Oeste 0.2 -- -- 100
2019-04-06 08:00:00 -0.1 0 Calma 5 Sur 0.2 -- -- 100
2019-04-06 07:00:00 -0.1 2 Sudeste 5 Este 2 -- -- 100
2019-04-06 06:00:00 0.2 0 Calma 3 Noroeste 0 -- -- 100
2019-04-06 05:00:00 0 0 Calma 2 Nordeste 0.2 -- -- 100
2019-04-06 04:00:00 0 0 Calma 3 Oeste 0 -- -- 100
2019-04-06 03:00:00 0 0 Calma 2 Sudeste 0.2 -- -- 100
2019-04-06 02:00:00 0 0 Calma 3 Oeste 0.2 -- -- 100
2019-04-06 01:00:00 0 0 Calma 5 Sur 1.4 -- -- 100
2019-04-06 00:00:00 0 0 Calma 4 Sudoeste 4.4 -- -- 100
2019-04-05 23:00:00 0.7 4 Sudoeste 23 Sudoeste 0.6 -- -- 98
2019-04-05 22:00:00 3.6 2 Oeste 7 Oeste 0 -- -- 91
2019-04-05 21:00:00 3.9 4 Sur 23 Sudeste 0 -- -- 87
2019-04-05 20:00:00 4.4 10 Este 27 Sudeste 0 -- -- 87
2019-04-05 19:00:00 5.5 13 Sur 30 Sur 0 -- -- 83
2019-04-05 18:00:00 6.4 12 Sur 31 Sur 0 -- -- 79
2019-04-05 17:00:00 6.1 9 Sudeste 34 Sur 0 -- -- 81
2019-04-05 16:00:00 6.3 18 Sur 37 Sudoeste 0 -- -- 80
2019-04-05 15:00:00 5.1 21 Sur 38 Sudoeste 0 -- -- 84
2019-04-05 14:00:00 4.9 19 Sur 40 Sur 0 -- -- 87
2019-04-05 13:00:00 4.3 18 Sur 42 Sudoeste 0 -- -- 87
2019-04-05 12:00:00 4.4 18 Sur 33 Sur 0 -- -- 86
2019-04-05 11:00:00 3 10 Sudeste 24 Sudeste 0.2 -- -- 93
2019-04-05 10:00:00 2.8 8 Sur 21 Sudeste 0 -- -- 92
2019-04-05 09:00:00 2.5 10 Sur 40 Sudoeste 0.2 -- -- 92
2019-04-05 08:00:00 3.4 17 Sudoeste 50 Sur 0 -- -- 83
2019-04-05 07:00:00 5 23 Sur 51 Sur 0 -- -- 65
2019-04-05 06:00:00 6 23 Sur 44 Sur 0 -- -- 51
2019-04-05 05:00:00 5.4 18 Sur 31 Sudeste 0 -- -- 51
2019-04-05 04:00:00 4.4 9 Sur 26 Sur 0 -- -- 51
2019-04-05 03:00:00 4.8 11 Sur 26 Sudoeste 0 -- -- 53
2019-04-05 02:00:00 5.2 12 Sur 27 Sur 0 -- -- 52
2019-04-05 01:00:00 5.4 14 Sur 31 Sudoeste 0 -- -- 53
2019-04-05 00:00:00 5.1 6 Sudoeste 34 Sur 0 -- -- 55
2019-04-04 23:00:00 6 15 Sur 27 Sur 0 -- -- 56
2019-04-04 22:00:00 5.1 4 Sur 14 Sudeste 0 -- -- 57
2019-04-04 21:00:00 5.3 5 Sur 23 Sudoeste 0 -- -- 58
2019-04-04 20:00:00 5.8 10 Sur 31 Sudoeste 0 -- -- 54
2019-04-04 19:00:00 6.4 17 Sur 28 Sur 0 -- -- 55
2019-04-04 18:00:00 7.2 14 Sudoeste 31 Sudoeste 0 -- -- 54
2019-04-04 17:00:00 6.9 13 Sudoeste 27 Sur 0 -- -- 60
2019-04-04 16:00:00 5.4 13 Sur 23 Sur 0 -- -- 70
2019-04-04 15:00:00 3.8 6 Sudoeste 23 Sudoeste 0 -- -- 77
2019-04-04 14:00:00 3.4 5 Sudoeste 20 Sur 0 -- -- 81
2019-04-04 13:00:00 2 8 Sur 23 Sudoeste 0 -- -- 84
2019-04-04 12:00:00 0.4 7 Sudoeste 15 Sudoeste 0 -- -- 92
2019-04-04 11:00:00 0.2 8 Sur 12 Sudoeste 0 -- -- 89
2019-04-04 10:00:00 -0.2 4 Sur 8 Sur 0 -- -- 95
2019-04-04 09:00:00 -1.3 0 Calma 7 Sur 0 -- -- 100
2019-04-04 08:00:00 -1.8 3 Sur 5 Sur 0.2 -- -- 100
2019-04-04 07:00:00 -2.3 0 Calma 5 Sur 0 -- -- 100
2019-04-04 06:00:00 -1.9 0 Calma 10 Sudeste 0 -- -- 100
2019-04-04 05:00:00 -1.7 4 Sur 14 Nordeste 0 -- -- 99
2019-04-04 04:00:00 -1.2 4 Oeste 14 Oeste 0 -- -- 92
2019-04-04 03:00:00 -1.6 3 Sudoeste 10 Sudoeste 0.2 -- -- 100
2019-04-04 02:00:00 -1.8 0 Calma 9 Sudoeste 0.4 -- -- 100
2019-04-04 01:00:00 -1.5 3 Sudoeste 11 Sudoeste 0.4 -- -- 100
2019-04-04 00:00:00 -1.3 4 Sudoeste 15 Sur 0.2 -- -- 98
2019-04-03 23:00:00 -1 4 Sudoeste 14 Sudoeste 0.2 -- -- 96
2019-04-03 22:00:00 -0.7 5 Oeste 15 Oeste 0 -- -- 89
2019-04-03 21:00:00 0.3 4 Oeste 15 Sudoeste 0 -- -- 85
2019-04-03 20:00:00 0.4 5 Oeste 17 Sudoeste 0.8 -- -- 88
2019-04-03 19:00:00 0.6 2 Sudeste 18 Sudoeste 0.2 -- -- 93
2019-04-03 18:00:00 2.6 4 Sudoeste 15 Nordeste 0.2 -- -- 83
2019-04-03 17:00:00 1.1 6 Norte 19 Nordeste 0.8 -- -- 93
2019-04-03 16:00:00 0.6 7 Norte 23 Norte 1 -- -- 95
2019-04-03 15:00:00 3.6 6 Sudoeste 19 Sudoeste 0 -- -- 87
2019-04-03 14:00:00 2.4 5 Sudoeste 28 Nordeste 1.2 -- -- 94
2019-04-03 13:00:00 3.9 4 Oeste 17 Oeste 0.2 -- -- 88
2019-04-03 12:00:00 3 4 Oeste 14 Oeste 0 -- -- 86
2019-04-03 11:00:00 1.9 3 Sur 23 Nordeste 0.6 -- -- 92
2019-04-03 10:00:00 1.6 5 Nordeste 9 Norte 0.8 -- -- 97
2019-04-03 09:00:00 1.8 4 Sudoeste 13 Oeste 1 -- -- 98
2019-04-03 08:00:00 2.3 4 Sudoeste 19 Sudoeste 0 -- -- 97
2019-04-03 07:00:00 2.6 3 Oeste 15 Oeste 0 -- -- 96
2019-04-03 06:00:00 2.5 3 Oeste 13 Oeste 0.2 -- -- 98
2019-04-03 05:00:00 2.2 0 Calma 15 Nordeste 0.8 -- -- 97
2019-04-03 04:00:00 2.9 6 Nordeste 15 Este 0.8 -- -- 96
2019-04-03 03:00:00 3.4 3 Noroeste 17 Norte 0.4 -- -- 96
2019-04-03 02:00:00 3.9 5 Norte 11 Norte 1 -- -- 96
2019-04-03 01:00:00 4.4 3 Nordeste 10 Nordeste 0.8 -- -- 95
2019-04-03 00:00:00 5 4 Noroeste 22 Nordeste 0 -- -- 92
2019-04-02 23:00:00 5.4 6 Nordeste 13 Norte 0 -- -- 90
2019-04-02 22:00:00 5.6 3 Noroeste 9 Nordeste 0 -- -- 91
2019-04-02 21:00:00 5.6 4 Sudeste 19 Nordeste 0 -- -- 89
2019-04-02 20:00:00 6.2 8 Nordeste 21 Nordeste 0 -- -- 86
2019-04-02 19:00:00 7.9 9 Norte 25 Norte 0 -- -- 81
2019-04-02 18:00:00 9 11 Norte 27 Norte 0 -- -- 75
2019-04-02 17:00:00 9.2 6 Norte 19 Este 0 -- -- 78
2019-04-02 16:00:00 10.9 9 Norte 19 Norte 0 -- -- 64
2019-04-02 15:00:00 10.1 9 Nordeste 22 Nordeste 0 -- -- 67
2019-04-02 14:00:00 10.7 6 Sudoeste 22 Nordeste 0 -- -- 68
2019-04-02 13:00:00 9.4 6 Nordeste 22 Nordeste 0 -- -- 76
2019-04-02 12:00:00 9.5 6 Nordeste 21 Este 0 -- -- 82
2019-04-02 11:00:00 8.7 8 Nordeste 16 Norte 0 -- -- 85
2019-04-02 10:00:00 7 4 Nordeste 12 Nordeste 0 -- -- 93
2019-04-02 09:00:00 6.3 0 Calma 6 Nordeste 0 -- -- 100
2019-04-02 08:00:00 5.9 0 Calma 4 Nordeste 0 -- -- 100
2019-04-02 07:00:00 6.2 0 Calma 3 Oeste 0 -- -- 100
2019-04-02 06:00:00 6.7 0 Calma 4 Este 0 -- -- 100
2019-04-02 05:00:00 6.9 2 Sur 9 Sur 0 -- -- 100
2019-04-02 04:00:00 6.9 0 Calma 3 Norte 1 -- -- 100
2019-04-02 03:00:00 6.6 0 Calma 4 Norte 0 -- -- 100
2019-04-02 02:00:00 6.3 0 Calma 4 Norte 0 -- -- 100
2019-04-02 01:00:00 6.6 0 Calma 3 Norte 0.2 -- -- 100
2019-04-02 00:00:00 6.7 0 Calma 4 Sudeste 0 -- -- 100
2019-04-01 23:00:00 6.9 2 Norte 6 Nordeste 1.4 -- -- 99
2019-04-01 22:00:00 7.6 0 Calma 5 Oeste 1.8 -- -- 99
2019-04-01 21:00:00 8.3 0 Calma 3 Sur 0 -- -- 91
2019-04-01 20:00:00 9.4 3 Sur 14 Sudeste 0 -- -- 84
2019-04-01 19:00:00 10.1 5 Sudeste 12 Sur 0 -- -- 80
2019-04-01 18:00:00 9.4 3 Sudoeste 10 Sur 0 -- -- 86
2019-04-01 17:00:00 9.2 7 Sur 18 Sudeste 0 -- -- 84
2019-04-01 16:00:00 9.7 9 Sur 20 Sur 0 -- -- 82
2019-04-01 15:00:00 8.7 7 Sur 14 Sur 0 -- -- 88
2019-04-01 14:00:00 8.5 6 Sur 14 Sur 0 -- -- 87
2019-04-01 13:00:00 8.6 6 Sur 15 Sudeste 0 -- -- 88
2019-04-01 12:00:00 8.8 6 Sudeste 12 Sudeste 0 -- -- 86
2019-04-01 11:00:00 7.2 0 Calma 4 Sur 0.2 -- -- 99
2019-04-01 10:00:00 6 2 Este 6 Nordeste 0.6 -- -- 98
2019-04-01 09:00:00 5.4 3 Norte 5 Nordeste 0.4 -- -- 100
2019-04-01 08:00:00 4.9 2 Nordeste 4 Norte 0 -- -- 100
2019-04-01 07:00:00 4.2 0 Calma 2 Noroeste 0.2 -- -- 100
2019-04-01 06:00:00 4.2 0 Calma 2 Sudeste 0.2 -- -- 100
2019-04-01 05:00:00 4.4 0 Calma 2 Noroeste 0 -- -- 100
2019-04-01 04:00:00 4.4 0 Calma 2 Norte 0.2 -- -- 100
2019-04-01 03:00:00 4.5 0 Calma 3 Oeste 0.4 -- -- 99
2019-04-01 02:00:00 4.8 0 Calma 3 Sudoeste 1 -- -- 99
2019-04-01 01:00:00 5.2 2 Noroeste 6 Noroeste 0.6 -- -- 95
2019-04-01 00:00:00 6.2 2 Oeste 7 Noroeste 0 -- -- 88
2019-03-31 23:00:00 7.7 3 Oeste 9 Oeste 0 -- -- 71
2019-03-31 22:00:00 7.4 0 Calma 6 Sudoeste 0 -- -- 77
2019-03-31 21:00:00 8.6 3 Sur 8 Oeste 0 -- -- 77
2019-03-31 20:00:00 10.4 4 Sudoeste 14 Norte 0 -- -- 70
2019-03-31 19:00:00 11.5 5 Nordeste 16 Norte 0 -- -- 59
2019-03-31 18:00:00 12.2 8 Sudoeste 21 Sur 0 -- -- 61
2019-03-31 17:00:00 13.7 8 Sudoeste 22 Sur 0 -- -- 53
2019-03-31 16:00:00 14 8 Sudoeste 22 Sur 0 -- -- 56
2019-03-31 15:00:00 13.6 10 Sudoeste 22 Oeste 0 -- -- 54
2019-03-31 14:00:00 12.8 11 Sudoeste 22 Sur 0 -- -- 53
2019-03-31 13:00:00 12.6 9 Sudoeste 20 Sudoeste 0 -- -- 54
2019-03-31 12:00:00 11.5 9 Sur 15 Sudoeste 0 -- -- 58
2019-03-31 11:00:00 9.8 7 Sur 10 Sur 0 -- -- 58
2019-03-31 10:00:00 7.6 2 Sudeste 4 Sudoeste 0 -- -- 69
2019-03-31 09:00:00 4.3 0 Calma 3 Este 0 -- -- 80
2019-03-31 08:00:00 1.7 0 Calma 2 Norte 0 -- -- 87
2019-03-31 07:00:00 2.4 0 Calma 5 Norte 0 -- -- 83
2019-03-31 06:00:00 3.1 2 Noroeste 4 Norte 0 -- -- 79
2019-03-31 05:00:00 3.7 2 Nordeste 3 Nordeste 0 -- -- 79
2019-03-31 03:00:00 5.7 2 Norte 7 Norte 0 -- -- 69
2019-03-31 01:00:00 5.6 2 Norte 8 Nordeste 0 -- -- 67
2019-03-31 00:00:00 6.6 3 Norte 5 Nordeste 0 -- -- 64
2019-03-30 23:00:00 7.4 0 Calma 5 Este 0 -- -- 61
2019-03-30 22:00:00 7.2 2 Norte 4 Norte 0 -- -- 62
2019-03-30 21:00:00 8 3 Norte 5 Norte 0 -- -- 59
2019-03-30 20:00:00 9.9 0 Calma 8 Sur 0 -- -- 53
2019-03-30 19:00:00 12.4 3 Sudoeste 16 Sur 0 -- -- 42
2019-03-30 18:00:00 13.5 7 Sur 19 Sur 0 -- -- 39
2019-03-30 17:00:00 14.3 9 Sudoeste 23 Sur 0 -- -- 37
2019-03-30 16:00:00 13.9 10 Sudoeste 26 Sudoeste 0 -- -- 39
2019-03-30 15:00:00 13.7 12 Sudoeste 29 Sur 0 -- -- 40
2019-03-30 14:00:00 13.4 11 Sudoeste 28 Sudoeste 0 -- -- 43
2019-03-30 13:00:00 12.3 17 Sur 25 Sur 0 -- -- 48
2019-03-30 12:00:00 12.2 12 Sudoeste 27 Sur 0 -- -- 47
2019-03-30 11:00:00 11 16 Sur 26 Sur 0 -- -- 50
2019-03-30 10:00:00 9.5 17 Sur 23 Sur 0 -- -- 51
2019-03-30 09:00:00 8.3 6 Sur 14 Sudeste 0 -- -- 64
2019-03-30 08:00:00 6.2 4 Sudeste 14 Sudeste 0 -- -- 69
2019-03-30 07:00:00 4.7 5 Este 14 Este 0 -- -- 74
2019-03-30 06:00:00 4.2 3 Nordeste 9 Sudeste 0 -- -- 76
2019-03-30 05:00:00 4.4 0 Calma 11 Este 0 -- -- 74
2019-03-30 04:00:00 5 4 Sudeste 13 Sudeste 0 -- -- 72
2019-03-30 03:00:00 5.3 3 Este 10 Sudeste 0 -- -- 70
2019-03-30 02:00:00 5.3 0 Calma 6 Sudoeste 0 -- -- 70
2019-03-30 01:00:00 5.8 2 Sudoeste 10 Sur 0 -- -- 68
2019-03-30 00:00:00 6.7 3 Sur 12 Sudeste 0 -- -- 63
2019-03-29 23:00:00 7.3 5 Sudeste 14 Sudeste 0 -- -- 59
2019-03-29 22:00:00 8.3 5 Este 12 Sudeste 0 -- -- 52
2019-03-29 21:00:00 9 4 Sur 16 Sur 0 -- -- 50
2019-03-29 20:00:00 10.4 9 Sur 24 Sur 0 -- -- 47
2019-03-29 19:00:00 11.5 12 Sur 25 Sudoeste 0 -- -- 47
2019-03-29 18:00:00 12.9 12 Sur 28 Sudoeste 0 -- -- 39
2019-03-29 17:00:00 14 14 Sudoeste 34 Sur 0 -- -- 35
2019-03-29 16:00:00 14 18 Sur 37 Sur 0 -- -- 39
2019-03-29 15:00:00 14.2 18 Sudoeste 39 Sur 0 -- -- 40
2019-03-29 14:00:00 14 19 Sur 37 Sudoeste 0 -- -- 43
2019-03-29 13:00:00 13.5 19 Sur 39 Sur 0 -- -- 43
2019-03-29 12:00:00 12.4 22 Sur 43 Sur 0 -- -- 49
2019-03-29 11:00:00 11.8 16 Sur 42 Sudoeste 0 -- -- 45
2019-03-29 10:00:00 10.7 14 Sur 24 Sur 0 -- -- 56
2019-03-29 09:00:00 8.7 9 Sur 19 Sur 0 -- -- 59
2019-03-29 08:00:00 6.4 5 Este 14 Este 0 -- -- 68
2019-03-29 07:00:00 4.9 2 Este 11 Sudeste 0 -- -- 75
2019-03-29 06:00:00 4.6 3 Este 8 Nordeste 0 -- -- 75
2019-03-29 05:00:00 3.1 3 Oeste 8 Oeste 0 -- -- 85
2019-03-29 04:00:00 2.1 0 Calma 4 Oeste 0 -- -- 93
2019-03-29 03:00:00 1.8 0 Calma 2 Norte 0 -- -- 94
2019-03-29 02:00:00 2.5 0 Calma 4 Norte 0 -- -- 89
2019-03-29 01:00:00 2.8 0 Calma 3 Norte 0 -- -- 88
2019-03-29 00:00:00 3.1 0 Calma 4 Noroeste 0 -- -- 89
2019-03-28 23:00:00 3.4 3 Oeste 18 Este 0 -- -- 87
2019-03-28 22:00:00 6.2 10 Nordeste 29 Norte 0 -- -- 75
2019-03-28 21:00:00 5.9 10 Nordeste 24 Norte 0 -- -- 78
2019-03-28 20:00:00 6.2 8 Noroeste 31 Norte 0 -- -- 79
2019-03-28 19:00:00 6.7 13 Norte 30 Norte 0 -- -- 76
2019-03-28 18:00:00 8.2 15 Norte 38 Norte 0 -- -- 70
2019-03-28 17:00:00 9 17 Norte 40 Norte 0 -- -- 69
2019-03-28 16:00:00 9.3 16 Norte 35 Norte 0 -- -- 67
2019-03-28 15:00:00 9.7 12 Noroeste 30 Norte 0 -- -- 65
2019-03-28 14:00:00 9.1 14 Noroeste 31 Norte 0 -- -- 65
2019-03-28 13:00:00 8.5 15 Norte 32 Noroeste 0 -- -- 67
2019-03-28 12:00:00 8.1 13 Norte 30 Norte 0 -- -- 58
2019-03-28 11:00:00 7.3 16 Norte 30 Noroeste 0 -- -- 62
2019-03-28 10:00:00 6.6 13 Noroeste 27 Noroeste 0 -- -- 74
2019-03-28 09:00:00 6 9 Oeste 22 Oeste 0 -- -- 75
2019-03-28 08:00:00 3.5 4 Oeste 10 Oeste 0 -- -- 91
2019-03-28 07:00:00 0.9 2 Noroeste 6 Oeste 0 -- -- 97
2019-03-28 06:00:00 1 3 Norte 7 Sudoeste 0 -- -- 99
2019-03-28 05:00:00 2.1 5 Sudoeste 22 Norte 0 -- -- 96
2019-03-28 04:00:00 3.2 13 Norte 24 Norte 0 -- -- 96
2019-03-28 03:00:00 3.8 5 Norte 24 Norte 0 -- -- 87
2019-03-28 02:00:00 3.7 12 Noroeste 28 Noroeste 0 -- -- 90
2019-03-28 01:00:00 2.9 6 Oeste 26 Oeste 0 -- -- 87
2019-03-28 00:00:00 3.3 9 Noroeste 22 Noroeste 0 -- -- 81
2019-03-27 23:00:00 2.1 4 Oeste 14 Sur 0 -- -- 82
2019-03-27 22:00:00 2.8 5 Oeste 14 Noroeste 0 -- -- 81
2019-03-27 21:00:00 3.5 6 Sudoeste 25 Oeste 0 -- -- 80
2019-03-27 20:00:00 3.8 5 Sudoeste 35 Noroeste 0 -- -- 83
2019-03-27 19:00:00 5 9 Sudoeste 34 Noroeste 0 -- -- 76
2019-03-27 18:00:00 6.5 11 Oeste 38 Noroeste 0 -- -- 61
2019-03-27 17:00:00 7.8 20 Noroeste 59 Norte 0 -- -- 57
2019-03-27 16:00:00 8.8 18 Norte 40 Noroeste 0 -- -- 41
2019-03-27 15:00:00 9 16 Noroeste 37 Noroeste 0 -- -- 40
2019-03-27 14:00:00 9 14 Noroeste 29 Noroeste 0 -- -- 46
2019-03-27 13:00:00 8.1 16 Norte 31 Norte 0 -- -- 46
2019-03-27 12:00:00 7.3 17 Norte 40 Noroeste 0 -- -- 49
2019-03-27 11:00:00 6.5 17 Noroeste 31 Noroeste 0 -- -- 49
2019-03-27 10:00:00 6 14 Noroeste 27 Noroeste 0 -- -- 51
2019-03-27 09:00:00 6.8 6 Sur 32 Este 0 -- -- 43
2019-03-27 08:00:00 5.4 4 Sudeste 31 Este 0 -- -- 41
2019-03-27 07:00:00 3.1 7 Norte 24 Noroeste 0 -- -- 53
2019-03-27 06:00:00 2 6 Nordeste 19 Nordeste 0 -- -- 59
2019-03-27 05:00:00 0.9 4 Sur 31 Noroeste 0 -- -- 69
2019-03-27 04:00:00 3.5 6 Noroeste 22 Nordeste 0 -- -- 53
2019-03-27 03:00:00 2.6 5 Oeste 29 Este 0 -- -- 58
2019-03-27 02:00:00 4.2 8 Este 24 Este 0 -- -- 55
2019-03-27 01:00:00 3.6 5 Este 18 Nordeste 0 -- -- 59
2019-03-27 00:00:00 4.1 5 Nordeste 23 Nordeste 0 -- -- 56
2019-03-26 23:00:00 4.5 7 Nordeste 32 Nordeste 0 -- -- 53
2019-03-26 22:00:00 4.6 13 Nordeste 32 Este 0 -- -- 54
2019-03-26 21:00:00 5.1 13 Nordeste 37 Este 0 -- -- 52
2019-03-26 20:00:00 5.8 12 Este 36 Este 0 -- -- 49
2019-03-26 19:00:00 6.5 13 Este 44 Este 0 -- -- 46
2019-03-26 18:00:00 7.5 12 Este 36 Este 0 -- -- 42
2019-03-26 17:00:00 8.2 10 Nordeste 41 Este 0 -- -- 42
2019-03-26 16:00:00 7.6 13 Noroeste 44 Noroeste 0 -- -- 53
2019-03-26 15:00:00 6.7 18 Norte 41 Noroeste 0 -- -- 60
2019-03-26 14:00:00 5.9 19 Norte 37 Norte 0 -- -- 62
2019-03-26 13:00:00 5.5 17 Norte 33 Norte 0 -- -- 64
2019-03-26 12:00:00 5.6 16 Norte 31 Norte 0 -- -- 61
2019-03-26 11:00:00 5.1 17 Norte 33 Norte 0 -- -- 59
2019-03-26 10:00:00 5.9 8 Nordeste 26 Nordeste 0 -- -- 54
2019-03-26 09:00:00 4.4 9 Este 19 Nordeste 0 -- -- 64
2019-03-26 08:00:00 1.3 11 Nordeste 31 Nordeste 0 -- -- 82
2019-03-26 07:00:00 -0.7 14 Norte 30 Norte 0 -- -- 94
2019-03-26 06:00:00 -0.5 11 Nordeste 31 Este 0 -- -- 95
2019-03-26 05:00:00 0 8 Nordeste 24 Norte 0 -- -- 95
2019-03-26 04:00:00 0.6 12 Noroeste 30 Noroeste 0 -- -- 96
2019-03-26 03:00:00 1.2 13 Norte 33 Norte 0 -- -- 97
2019-03-26 02:00:00 2 6 Noroeste 27 Nordeste 0 -- -- 95
2019-03-26 01:00:00 2.6 6 Nordeste 37 Este 0 -- -- 93
2019-03-26 00:00:00 3.2 12 Sudeste 38 Nordeste 0 -- -- 91
2019-03-25 23:00:00 3.2 12 Este 38 Nordeste 0 -- -- 97
2019-03-25 22:00:00 3.4 10 Sudeste 37 Este 0 -- -- 96
2019-03-25 21:00:00 3.4 6 Sudeste 19 Este 0 -- -- 84
2019-03-25 20:00:00 3.6 6 Sudeste 35 Este 0 -- -- 86
2019-03-25 19:00:00 4.4 9 Este 27 Este 0 -- -- 90
2019-03-25 18:00:00 5 6 Este 25 Este 0 -- -- 86
2019-03-25 17:00:00 5.9 5 Noroeste 24 Noroeste 0 -- -- 81
2019-03-25 16:00:00 7 12 Noroeste 39 Noroeste 0 -- -- 68
2019-03-25 15:00:00 6.9 18 Noroeste 52 Norte 0 -- -- 69
2019-03-25 14:00:00 5.6 9 Noroeste 51 Norte 0 -- -- 77
2019-03-25 13:00:00 5.1 15 Noroeste 44 Noroeste 0 -- -- 76
2019-03-25 12:00:00 4.7 8 Oeste 27 Nordeste 0 -- -- 80
2019-03-25 11:00:00 3.5 9 Noroeste 30 Noroeste 0 -- -- 92
2019-03-25 10:00:00 2.9 9 Noroeste 29 Noroeste 0 -- -- 98
2019-03-25 09:00:00 3 8 Sudoeste 26 Este 0 -- -- 100
2019-03-25 08:00:00 4.7 5 Sudeste 19 Este 0 -- -- 97
2019-03-25 07:00:00 4.9 5 Sur 26 Norte 0 -- -- 97
2019-03-25 06:00:00 4.9 6 Sur 21 Oeste 0 -- -- 96
2019-03-25 05:00:00 4.5 5 Sur 20 Este 0 -- -- 94
2019-03-25 04:00:00 4.9 5 Noroeste 18 Este 0 -- -- 88
2019-03-25 03:00:00 5.4 7 Este 24 Nordeste 0 -- -- 80
2019-03-25 02:00:00 5.6 4 Sur 18 Este 0 -- -- 75
2019-03-25 01:00:00 6 4 Sudoeste 15 Noroeste 0 -- -- 73
2019-03-25 00:00:00 6.8 6 Oeste 20 Noroeste 0 -- -- 71
2019-03-24 23:00:00 7.2 7 Oeste 19 Norte 0 -- -- 66
2019-03-24 22:00:00 7.2 5 Oeste 17 Oeste 0 -- -- 71
2019-03-24 21:00:00 7.9 6 Noroeste 19 Noroeste 0 -- -- 73
2019-03-24 20:00:00 9 8 Noroeste 25 Noroeste 0 -- -- 79
2019-03-24 19:00:00 10.8 5 Oeste 28 Noroeste 0 -- -- 74
2019-03-24 18:00:00 12.5 13 Noroeste 31 Noroeste 0 -- -- 50
2019-03-24 17:00:00 13.2 14 Noroeste 34 Oeste 0 -- -- 50
2019-03-24 16:00:00 13.7 14 Norte 32 Noroeste 0 -- -- 47
2019-03-24 15:00:00 13.8 13 Noroeste 37 Noroeste 0 -- -- 46
2019-03-24 14:00:00 14 16 Noroeste 36 Norte 0 -- -- 45
2019-03-24 13:00:00 13.8 15 Noroeste 32 Noroeste 0 -- -- 47
2019-03-24 12:00:00 13.7 14 Noroeste 27 Norte 0 -- -- 45
2019-03-24 11:00:00 14.4 9 Norte 30 Noroeste 0 -- -- 41
2019-03-24 10:00:00 14.2 6 Nordeste 21 Nordeste 0 -- -- 42
2019-03-24 09:00:00 10 2 Sur 5 Sur 0 -- -- 63
2019-03-24 08:00:00 5.9 0 Calma 10 Este 0 -- -- 68
2019-03-24 07:00:00 4.8 0 Calma 2 Nordeste 0 -- -- 66
2019-03-24 06:00:00 5.5 0 Calma 3 Nordeste 0 -- -- 64
2019-03-24 05:00:00 6.2 0 Calma 4 Norte 0 -- -- 70
2019-03-24 04:00:00 5.5 0 Calma 5 Sudeste 0 -- -- 78
2019-03-24 03:00:00 6.5 0 Calma 4 Noroeste 0 -- -- 76
2019-03-24 02:00:00 6.6 0 Calma 4 Norte 0 -- -- 75
2019-03-24 01:00:00 7.7 2 Norte 5 Sudoeste 0 -- -- 70
2019-03-24 00:00:00 8.4 2 Nordeste 10 Este 0 -- -- 67
2019-03-23 23:00:00 9.3 3 Nordeste 13 Nordeste 0 -- -- 63
2019-03-23 22:00:00 9.1 3 Nordeste 9 Norte 0 -- -- 64
2019-03-23 21:00:00 10 2 Oeste 13 Norte 0 -- -- 60
2019-03-23 20:00:00 12.6 7 Norte 21 Noroeste 0 -- -- 50
2019-03-23 19:00:00 13.3 12 Norte 28 Norte 0 -- -- 50
2019-03-23 18:00:00 14.2 12 Norte 25 Norte 0 -- -- 49
2019-03-23 17:00:00 14.9 13 Norte 23 Noroeste 0 -- -- 48
2019-03-23 16:00:00 15.1 14 Norte 28 Norte 0 -- -- 53
2019-03-23 15:00:00 15.1 16 Norte 28 Norte 0 -- -- 48
2019-03-23 14:00:00 15.5 15 Norte 28 Noroeste 0 -- -- 44
2019-03-23 13:00:00 15.5 14 Norte 23 Norte 0 -- -- 39
2019-03-23 12:00:00 15.6 11 Norte 22 Norte 0 -- -- 39
2019-03-23 11:00:00 16.1 6 Norte 15 Este 0 -- -- 40
2019-03-23 10:00:00 13 4 Sur 7 Sudeste 0 -- -- 53
2019-03-23 09:00:00 10 0 Calma 2 Sudeste 0 -- -- 62
2019-03-23 08:00:00 5.8 0 Calma 2 Noroeste 0 -- -- 70
2019-03-23 07:00:00 3.6 0 Calma 2 Norte 0 -- -- 78
2019-03-23 06:00:00 3.6 0 Calma 2 Norte 0 -- -- 81
2019-03-23 05:00:00 4.1 0 Calma 2 Norte 0 -- -- 76
2019-03-23 04:00:00 4.4 0 Calma 3 Norte 0 -- -- 74
2019-03-23 03:00:00 4.7 0 Calma 2 Noroeste 0 -- -- 76
2019-03-23 02:00:00 4.6 0 Calma 2 Noroeste 0 -- -- 76
2019-03-23 01:00:00 4.9 0 Calma 2 Norte 0 -- -- 72
2019-03-23 00:00:00 5.2 0 Calma 4 Nordeste 0 -- -- 72
2019-03-22 23:00:00 5.4 0 Calma 3 Noroeste 0 -- -- 74
2019-03-22 22:00:00 6.2 0 Calma 8 Norte 0 -- -- 70
2019-03-22 21:00:00 7.6 0 Calma 19 Nordeste 0 -- -- 62
2019-03-22 20:00:00 10.1 9 Norte 22 Norte 0 -- -- 51
2019-03-22 19:00:00 11.4 12 Norte 21 Norte 0 -- -- 50
2019-03-22 18:00:00 13.2 8 Norte 21 Norte 0 -- -- 46
2019-03-22 17:00:00 15.1 5 Oeste 19 Sudoeste 0 -- -- 41
2019-03-22 16:00:00 15.7 5 Oeste 20 Sudoeste 0 -- -- 41
2019-03-22 15:00:00 14.4 9 Sudoeste 22 Sudoeste 0 -- -- 38
2019-03-22 14:00:00 14.3 8 Sudoeste 26 Sudoeste 0 -- -- 41
2019-03-22 13:00:00 13.7 10 Sudoeste 24 Sudoeste 0 -- -- 46
2019-03-22 12:00:00 12.4 11 Sudoeste 24 Sur 0 -- -- 45
2019-03-22 11:00:00 11 12 Sudoeste 19 Sudoeste 0 -- -- 45
2019-03-22 10:00:00 9.4 7 Sur 12 Sur 0 -- -- 58
2019-03-22 09:00:00 6.2 4 Sudoeste 6 Sur 0 -- -- 65
2019-03-22 08:00:00 2.9 0 Calma 4 Oeste 0 -- -- 79
2019-03-22 07:00:00 1.4 0 Calma 4 Norte 0 -- -- 84
2019-03-22 06:00:00 1.8 2 Norte 5 Noroeste 0 -- -- 84
2019-03-22 05:00:00 2.1 2 Norte 5 Nordeste 0 -- -- 82
2019-03-22 04:00:00 2.1 2 Norte 8 Nordeste 0 -- -- 83
2019-03-22 03:00:00 1.2 0 Calma 3 Norte 0 -- -- 89
2019-03-22 02:00:00 0 0 Calma 3 Sudeste 0 -- -- 94
2019-03-22 01:00:00 0.9 0 Calma 2 Noroeste 0 -- -- 91
2019-03-22 00:00:00 1 0 Calma 2 Norte 0 -- -- 90
2019-03-21 23:00:00 1.6 0 Calma 4 Norte 0 -- -- 89
2019-03-21 22:00:00 2.1 0 Calma 4 Noroeste 0 -- -- 88
2019-03-21 21:00:00 3.8 4 Noroeste 21 Norte 0 -- -- 82
2019-03-21 20:00:00 5.3 9 Norte 25 Norte 0 -- -- 73
2019-03-21 19:00:00 6 13 Norte 27 Norte 0 -- -- 73
2019-03-21 18:00:00 7.1 14 Norte 28 Norte 0 -- -- 67
2019-03-21 17:00:00 8.5 12 Norte 24 Norte 0 -- -- 62
2019-03-21 16:00:00 9.2 11 Norte 22 Norte 0 -- -- 59
2019-03-21 15:00:00 8.9 10 Norte 27 Norte 0 -- -- 58
2019-03-21 14:00:00 8.2 12 Norte 26 Norte 0 -- -- 58
2019-03-21 13:00:00 7.9 13 Norte 27 Nordeste 0 -- -- 56
2019-03-21 12:00:00 6.7 15 Norte 26 Norte 0 -- -- 57
2019-03-21 11:00:00 6.8 11 Norte 26 Norte 0 -- -- 53
2019-03-21 10:00:00 6 8 Este 26 Este 0 -- -- 54
2019-03-21 09:00:00 5.3 6 Este 24 Nordeste 0 -- -- 56
2019-03-21 08:00:00 2.2 4 Este 19 Norte 0 -- -- 69
2019-03-21 07:00:00 2.6 10 Norte 18 Nordeste 0 -- -- 69
2019-03-21 06:00:00 2 3 Nordeste 18 Nordeste 0 -- -- 66
2019-03-21 05:00:00 2.8 6 Nordeste 27 Nordeste 0 -- -- 60
2019-03-21 04:00:00 3.8 13 Norte 29 Norte 0 -- -- 59
2019-03-21 03:00:00 2.9 12 Nordeste 24 Nordeste 0 -- -- 66
2019-03-21 02:00:00 3.1 11 Nordeste 25 Norte 0 -- -- 70
2019-03-21 01:00:00 2.8 7 Noroeste 23 Noroeste 0 -- -- 79
2019-03-21 00:00:00 2.6 9 Noroeste 23 Norte 0 -- -- 90
2019-03-20 23:00:00 2.6 9 Noroeste 27 Oeste 0 -- -- 92
2019-03-20 22:00:00 2.2 5 Oeste 21 Noroeste 0 -- -- 93
2019-03-20 21:00:00 2.2 5 Noroeste 13 Noroeste 0 -- -- 89
2019-03-20 20:00:00 2.2 3 Sur 18 Este 0 -- -- 87
2019-03-20 19:00:00 4 5 Sudoeste 25 Noroeste 0 -- -- 80
2019-03-20 18:00:00 5.3 9 Sudeste 29 Nordeste 0 -- -- 64
2019-03-20 17:00:00 5.5 7 Este 29 Norte 0 -- -- 67
2019-03-20 16:00:00 5.6 10 Norte 41 Norte 0 -- -- 67
2019-03-20 15:00:00 5.1 14 Noroeste 36 Noroeste 0 -- -- 62
2019-03-20 14:00:00 5.1 11 Noroeste 32 Noroeste 0 -- -- 67
2019-03-20 13:00:00 5.2 6 Noroeste 26 Este 0 -- -- 65
2019-03-20 12:00:00 4.4 8 Este 25 Este 0 -- -- 78
2019-03-20 11:00:00 3.4 9 Nordeste 25 Nordeste 0 -- -- 86
2019-03-20 10:00:00 3.3 7 Nordeste 22 Norte 0 -- -- 90
2019-03-20 09:00:00 2.3 4 Noroeste 17 Este 0 -- -- 92
2019-03-20 08:00:00 1.5 3 Norte 16 Nordeste 0 -- -- 90
2019-03-20 07:00:00 0.9 5 Norte 18 Este 0 -- -- 95
2019-03-20 06:00:00 1.2 4 Nordeste 18 Nordeste 0 -- -- 96
2019-03-20 05:00:00 1.2 4 Nordeste 22 Norte 0 -- -- 97
2019-03-20 04:00:00 1.5 8 Nordeste 26 Este 0 -- -- 99
2019-03-20 03:00:00 1.5 5 Sudeste 25 Este 0 -- -- 100
2019-03-20 02:00:00 1.7 8 Este 31 Nordeste 0 -- -- 99
2019-03-20 01:00:00 2 13 Este 31 Este 0 -- -- 98
2019-03-20 00:00:00 1.9 10 Este 32 Este 0 -- -- 98
2019-03-19 23:00:00 2 11 Este 28 Este 0 -- -- 98
2019-03-19 22:00:00 1.7 8 Este 32 Este 0 -- -- 100
2019-03-19 21:00:00 1.3 11 Este 28 Sudeste 1.8 -- -- 100
2019-03-19 20:00:00 1.4 8 Este 27 Este 2.6 -- -- 97
2019-03-19 19:00:00 2.2 6 Sur 21 Noroeste 0 -- -- 95
2019-03-19 18:00:00 2.4 5 Sudoeste 23 Este 0 -- -- 91
2019-03-19 17:00:00 2.6 8 Sudeste 22 Sur 0 -- -- 92
2019-03-19 16:00:00 2.7 5 Sur 22 Sudeste 0 -- -- 92
2019-03-19 15:00:00 2.5 5 Noroeste 19 Sudeste 0 -- -- 95
2019-03-19 14:00:00 2 6 Sudeste 37 Nordeste 0 -- -- 97
2019-03-19 13:00:00 2.2 9 Este 30 Este 0 -- -- 95
2019-03-19 12:00:00 1.7 9 Sudeste 24 Sudeste 0 -- -- 99
2019-03-19 11:00:00 1.7 8 Sur 23 Este 0 -- -- 100
2019-03-19 10:00:00 1.2 8 Sur 31 Norte 0 -- -- 100
2019-03-19 09:00:00 1.1 9 Sur 30 Este 0.4 -- -- 100
2019-03-19 08:00:00 0.8 6 Sudoeste 16 Oeste 0.8 -- -- 100
2019-03-19 07:00:00 0.6 4 Sudoeste 14 Noroeste 1 -- -- 100
2019-03-19 06:00:00 0.6 5 Noroeste 17 Noroeste 1.4 -- -- 100
2019-03-19 05:00:00 0.5 5 Oeste 16 Noroeste 1.6 -- -- 100
2019-03-19 04:00:00 0.2 2 Sudoeste 12 Noroeste 1.8 -- -- 100
2019-03-19 03:00:00 0.3 3 Sudoeste 9 Sur 1.8 -- -- 100
2019-03-19 02:00:00 0.3 2 Sudoeste 10 Oeste 2 -- -- 100
2019-03-19 01:00:00 0.6 4 Sudoeste 15 Noroeste 2.4 -- -- 100
2019-03-19 00:00:00 1.5 4 Sudoeste 15 Sudoeste 0.6 -- -- 99